Time;durP1;ratioP1;P1;durP2;ratioP2;P2;SDS_P1;SDS_P2;PMS_P1;PMS_P2;Temp;Humidity;BMP_temperature;BMP_pressure;BME280_temperature;BME280_humidity;BME280_pressure;Samples;Min_cycle;Max_cycle;Signal;HPM_P1;HPM_P2
2024/04/07 00:01:04;;;;;;;;;;;;;;;15.72;54.23;99212.40;68043;1275;1016380;-66
2024/04/07 00:04:27;;;;;;;;;;;;;;;15.74;54.54;99216.16;68043;1275;1016293;-65
2024/04/07 00:07:29;;;;;;;;;;;;;;;15.71;54.38;99218.52;68021;1275;1017846;-66
2024/04/07 00:10:31;;;;;;;;;;;;;;;15.80;54.21;99219.10;67958;1275;1016524;-66
2024/04/07 00:13:34;;;;;;;;;;;;;;;15.86;53.45;99218.60;68034;1275;1016887;-66
2024/04/07 00:16:37;;;;;;;;;;;;;;;15.83;53.38;99227.68;67937;1275;1016528;-66
2024/04/07 00:19:40;;;;;;;;;;;;;;;15.67;53.83;99227.79;67917;1275;1016617;-65
2024/04/07 00:22:43;;;;;;;;;;;;;;;15.70;53.57;99234.24;67912;1275;1016542;-66
2024/04/07 00:25:46;;;;;;;;;;;;;;;15.74;53.66;99229.95;68026;1275;1016448;-66
2024/04/07 00:28:48;;;;;;;;;;;;;;;15.77;53.37;99226.15;68033;1275;1016406;-66
2024/04/07 00:31:51;;;;;;;;;;;;;;;15.74;53.37;99227.29;67996;1275;1018938;-65
2024/04/07 00:34:53;;;;;;;;;;;;;;;15.73;53.49;99227.85;67947;1275;1016350;-67
2024/04/07 00:37:55;;;;;;;;;;;;;;;15.72;53.60;99235.72;68018;1275;1016208;-66
2024/04/07 00:40:58;;;;;;;;;;;;;;;15.69;54.21;99236.26;68016;1275;1019137;-66
2024/04/07 00:44:01;;;;;;;;;;;;;;;15.76;54.29;99241.98;67995;1275;1016288;-66
2024/04/07 00:47:04;;;;;;;;;;;;;;;15.76;54.00;99240.02;68038;1275;1016372;-66
2024/04/07 00:50:07;;;;;;;;;;;;;;;15.54;53.95;99240.59;68015;1275;1016129;-67
2024/04/07 00:53:10;;;;;;;;;;;;;;;15.59;54.00;99239.02;68046;1275;1016372;-65
2024/04/07 00:56:13;;;;;;;;;;;;;;;15.56;54.32;99235.33;67974;1275;1016455;-65
2024/04/07 00:59:16;;;;;;;;;;;;;;;15.49;54.31;99234.23;68031;1275;1018835;-66
2024/04/07 01:02:19;;;;;;;;;;;;;;;15.48;54.18;99232.23;68022;1275;1015868;-66
2024/04/07 01:05:22;;;;;;;;;;;;;;;15.56;54.06;99234.40;67995;1275;1016433;-65
2024/04/07 01:08:24;;;;;;;;;;;;;;;15.51;54.16;99234.64;68067;1275;1016220;-65
2024/04/07 01:11:26;;;;;;;;;;;;;;;15.43;54.29;99238.91;68048;1275;1016669;-66
2024/04/07 01:14:29;;;;;;;;;;;;;;;15.54;54.29;99238.96;68039;1275;1016436;-66
2024/04/07 01:17:32;;;;;;;;;;;;;;;15.48;54.52;99238.08;68010;1275;1016462;-66
2024/04/07 01:20:34;;;;;;;;;;;;;;;15.48;54.53;99236.81;68048;1275;1018764;-66
2024/04/07 01:23:38;;;;;;;;;;;;;;;15.52;55.62;99239.66;67947;1275;1016437;-66
2024/04/07 01:26:40;;;;;;;;;;;;;;;15.42;56.40;99238.11;68044;1275;1016295;-67
2024/04/07 01:29:43;;;;;;;;;;;;;;;15.36;57.07;99235.73;67984;1275;1016487;-66
2024/04/07 01:32:45;;;;;;;;;;;;;;;15.52;56.16;99230.35;67985;1275;1016794;-66
2024/04/07 01:35:48;;;;;;;;;;;;;;;15.49;55.61;99229.29;68066;1275;1016487;-66
2024/04/07 01:38:51;;;;;;;;;;;;;;;15.50;55.76;99236.50;68043;1275;1016014;-66
2024/04/07 01:41:53;;;;;;;;;;;;;;;15.68;55.54;99243.23;68022;1275;1016417;-65
2024/04/07 01:44:56;;;;;;;;;;;;;;;15.60;56.19;99248.23;68021;1275;1016413;-66
2024/04/07 01:47:58;;;;;;;;;;;;;;;15.72;55.58;99247.15;68029;1275;1016346;-66
2024/04/07 01:51:01;;;;;;;;;;;;;;;15.75;55.71;99248.39;67998;1275;1017601;-65
2024/04/07 01:54:04;;;;;;;;;;;;;;;15.65;55.28;99243.66;67997;1275;1018885;-66
2024/04/07 01:57:07;;;;;;;;;;;;;;;15.42;56.91;99247.43;68008;1275;1016425;-66
2024/04/07 02:00:10;;;;;;;;;;;;;;;15.59;56.91;99249.39;68029;1275;1016253;-65
2024/04/07 02:03:13;;;;;;;;;;;;;;;15.54;57.10;99253.95;68032;1275;1016469;-66
2024/04/07 02:06:15;;;;;;;;;;;;;;;15.63;57.04;99252.95;67991;1275;1016259;-65
2024/04/07 02:09:18;;;;;;;;;;;;;;;15.69;56.91;99249.19;68027;1275;1016190;-67
2024/04/07 02:12:20;;;;;;;;;;;;;;;15.85;56.00;99249.01;68041;1275;1016002;-67
2024/04/07 02:15:24;;;;;;;;;;;;;;;15.66;55.75;99243.89;68015;1275;1017393;-66
2024/04/07 02:18:27;;;;;;;;;;;;;;;15.61;55.65;99249.56;68047;1275;1016366;-66
2024/04/07 02:21:30;;;;;;;;;;;;;;;15.39;55.94;99246.61;68031;1275;1016200;-67
2024/04/07 02:24:33;;;;;;;;;;;;;;;15.44;56.15;99247.15;67943;1275;1016538;-66
2024/04/07 02:27:36;;;;;;;;;;;;;;;15.33;56.55;99249.90;67982;1275;1015964;-65
2024/04/07 02:30:40;;;;;;;;;;;;;;;15.19;56.98;99255.48;67967;1275;1017236;-65
2024/04/07 02:33:45;;;;;;;;;;;;;;;15.02;56.43;99255.33;68034;1275;1016456;-66
2024/04/07 02:36:49;;;;;;;;;;;;;;;14.95;56.71;99250.35;68017;1275;1016318;-66
2024/04/07 02:39:51;;;;;;;;;;;;;;;14.98;57.11;99247.36;67986;1275;1016404;-65
2024/04/07 02:42:54;;;;;;;;;;;;;;;15.10;57.15;99249.28;67965;1275;1016364;-64
2024/04/07 02:49:17;;;;;;;;;;;;;;;15.27;56.20;99250.16;68048;1275;1015943;-66
2024/04/07 02:52:20;;;;;;;;;;;;;;;15.18;56.04;99251.32;67956;1275;1016413;-67
2024/04/07 02:55:22;;;;;;;;;;;;;;;15.20;56.25;99253.80;68014;1275;1016526;-67
2024/04/07 02:58:25;;;;;;;;;;;;;;;15.06;57.04;99254.52;68054;1275;1016343;-67
2024/04/07 03:01:29;;;;;;;;;;;;;;;15.07;57.96;99257.98;68043;1275;1016374;-64
2024/04/07 03:04:31;;;;;;;;;;;;;;;15.06;57.71;99258.35;67989;1275;1016708;-66
2024/04/07 03:07:34;;;;;;;;;;;;;;;15.14;57.52;99262.34;67969;1275;1016240;-66
2024/04/07 03:10:37;;;;;;;;;;;;;;;15.13;57.18;99260.29;67942;1275;1016828;-66
2024/04/07 03:13:40;;;;;;;;;;;;;;;14.86;57.71;99257.15;67938;1275;1016181;-66
2024/04/07 03:16:43;;;;;;;;;;;;;;;15.15;56.67;99252.59;67964;1275;1016578;-66
2024/04/07 03:19:45;;;;;;;;;;;;;;;15.21;56.24;99240.00;68033;1275;1015813;-66
2024/04/07 03:22:51;;;;;;;;;;;;;;;15.21;56.26;99232.42;68017;1275;1016355;-65
2024/04/07 03:25:56;;;;;;;;;;;;;;;15.06;56.41;99229.27;68054;1275;1016311;-66
2024/04/07 03:28:59;;;;;;;;;;;;;;;15.04;56.56;99228.57;68028;1275;1015955;-65
2024/04/07 03:32:03;;;;;;;;;;;;;;;15.12;56.33;99232.20;67995;1275;1016458;-66
2024/04/07 03:35:06;;;;;;;;;;;;;;;15.22;56.39;99235.72;67962;1275;1016405;-65
2024/04/07 03:38:09;;;;;;;;;;;;;;;15.29;56.70;99229.94;67974;1275;1016150;-66
2024/04/07 03:41:11;;;;;;;;;;;;;;;15.19;56.90;99225.73;68043;1275;1016472;-66
2024/04/07 03:44:14;;;;;;;;;;;;;;;15.21;56.15;99223.99;67930;1275;1016018;-65
2024/04/07 03:47:17;;;;;;;;;;;;;;;15.20;56.51;99224.08;68038;1275;1016270;-66
2024/04/07 03:50:21;;;;;;;;;;;;;;;15.16;56.78;99219.30;68017;1275;1016272;-66
2024/04/07 03:53:23;;;;;;;;;;;;;;;15.20;56.89;99220.17;68055;1275;1016346;-65
2024/04/07 03:56:27;;;;;;;;;;;;;;;15.16;57.55;99227.88;67992;1275;1016464;-66
2024/04/07 03:59:29;;;;;;;;;;;;;;;15.10;58.62;99233.42;68036;1275;1016911;-65
2024/04/07 04:02:32;;;;;;;;;;;;;;;15.28;58.13;99227.52;68027;1275;1016345;-64
2024/04/07 04:05:35;;;;;;;;;;;;;;;15.23;58.51;99221.89;67970;1275;1018931;-66
2024/04/07 04:08:39;;;;;;;;;;;;;;;15.26;58.64;99225.39;67963;1275;1016199;-65
2024/04/07 04:11:41;;;;;;;;;;;;;;;15.39;58.69;99228.96;67974;1275;1016482;-66
2024/04/07 04:14:44;;;;;;;;;;;;;;;15.39;58.82;99225.34;67967;1275;1016447;-65
2024/04/07 04:17:47;;;;;;;;;;;;;;;15.48;58.79;99227.50;68003;1275;1016425;-66
2024/04/07 04:20:50;;;;;;;;;;;;;;;15.57;59.12;99228.21;68027;1275;1016488;-65
2024/04/07 04:23:52;;;;;;;;;;;;;;;15.72;58.95;99224.23;67992;1275;1016475;-66
2024/04/07 04:26:57;;;;;;;;;;;;;;;15.77;58.80;99224.75;67976;1275;1016633;-65
2024/04/07 04:29:59;;;;;;;;;;;;;;;15.80;58.89;99234.41;68016;1275;1018225;-65
2024/04/07 04:33:02;;;;;;;;;;;;;;;15.93;58.96;99241.02;68026;1275;1016349;-66
2024/04/07 04:36:04;;;;;;;;;;;;;;;15.81;59.87;99237.90;67904;1275;1016176;-66
2024/04/07 04:39:07;;;;;;;;;;;;;;;15.96;59.73;99240.98;67974;1275;1016311;-66
2024/04/07 04:42:09;;;;;;;;;;;;;;;16.13;59.72;99243.77;68014;1275;1016392;-65
2024/04/07 04:45:12;;;;;;;;;;;;;;;16.24;59.63;99240.26;68037;1275;1016436;-64
2024/04/07 04:48:14;;;;;;;;;;;;;;;16.34;60.00;99242.44;67983;1275;1016429;-65
2024/04/07 04:51:17;;;;;;;;;;;;;;;16.52;60.12;99249.14;67977;1275;1018385;-65
2024/04/07 04:54:19;;;;;;;;;;;;;;;16.79;59.46;99248.45;68068;1275;1016561;-65
2024/04/07 04:57:22;;;;;;;;;;;;;;;17.00;59.10;99247.98;68026;1275;1016475;-66
2024/04/07 05:00:24;;;;;;;;;;;;;;;17.31;58.92;99256.70;67962;1275;1016339;-66
2024/04/07 05:03:28;;;;;;;;;;;;;;;17.56;57.85;99257.63;68027;1275;1016253;-66
2024/04/07 05:06:32;;;;;;;;;;;;;;;17.73;57.53;99258.34;68030;1275;1015947;-66
2024/04/07 05:09:35;;;;;;;;;;;;;;;17.77;57.29;99255.33;67982;1275;1017637;-66
2024/04/07 05:12:37;;;;;;;;;;;;;;;17.86;57.31;99252.60;67983;1275;1016323;-64
2024/04/07 05:15:40;;;;;;;;;;;;;;;18.03;57.03;99255.83;68010;1275;1016219;-66
2024/04/07 05:18:42;;;;;;;;;;;;;;;18.11;56.98;99255.48;67988;1275;1016355;-65
2024/04/07 05:21:45;;;;;;;;;;;;;;;18.20;57.24;99254.94;67990;1275;1016424;-66
2024/04/07 05:24:47;;;;;;;;;;;;;;;18.30;56.80;99259.92;68014;1275;1016473;-65
2024/04/07 05:27:52;;;;;;;;;;;;;;;18.40;57.03;99259.03;67970;1275;1016494;-66
2024/04/07 05:30:55;;;;;;;;;;;;;;;18.66;56.55;99254.98;68031;1275;1016872;-66
2024/04/07 05:33:58;;;;;;;;;;;;;;;19.07;55.77;99254.77;68016;1275;1016518;-66
2024/04/07 05:37:03;;;;;;;;;;;;;;;19.35;55.70;99257.48;68010;1275;1016359;-65
2024/04/07 05:40:06;;;;;;;;;;;;;;;19.45;55.81;99264.73;68036;1275;1016369;-65
2024/04/07 05:43:08;;;;;;;;;;;;;;;19.53;55.85;99267.14;68019;1275;1016506;-66
2024/04/07 05:46:11;;;;;;;;;;;;;;;19.75;55.87;99265.84;68017;1275;1016004;-66
2024/04/07 05:49:14;;;;;;;;;;;;;;;20.03;55.34;99267.19;67975;1275;1016610;-65
2024/04/07 05:52:17;;;;;;;;;;;;;;;20.36;54.56;99268.36;68026;1275;1015728;-66
2024/04/07 05:55:20;;;;;;;;;;;;;;;20.63;54.06;99269.73;67935;1275;1016407;-65
2024/04/07 05:58:23;;;;;;;;;;;;;;;20.85;53.42;99269.80;67957;1275;1016190;-65
2024/04/07 06:01:26;;;;;;;;;;;;;;;20.95;53.46;99269.14;68019;1275;1016452;-66
2024/04/07 06:04:28;;;;;;;;;;;;;;;21.32;52.85;99269.85;65434;1275;6376855;-65
2024/04/07 06:07:32;;;;;;;;;;;;;;;21.53;52.60;99271.52;68010;1275;1016691;-66
2024/04/07 06:10:34;;;;;;;;;;;;;;;21.87;52.00;99273.77;68012;1275;1016403;-65
2024/04/07 06:13:37;;;;;;;;;;;;;;;22.01;52.08;99267.43;67993;1275;1016473;-66
2024/04/07 06:16:40;;;;;;;;;;;;;;;22.10;51.49;99265.63;68013;1275;1016658;-66
2024/04/07 06:19:42;;;;;;;;;;;;;;;22.27;51.30;99268.13;68028;1275;1016536;-65
2024/04/07 06:22:44;;;;;;;;;;;;;;;22.66;50.73;99267.08;68029;1275;1016410;-66
2024/04/07 06:25:47;;;;;;;;;;;;;;;22.53;50.99;99269.80;68058;1275;1016373;-65
2024/04/07 06:28:49;;;;;;;;;;;;;;;22.68;51.01;99268.56;68000;1275;1016915;-65
2024/04/07 06:31:52;;;;;;;;;;;;;;;22.91;50.84;99264.09;68024;1275;1016459;-64
2024/04/07 06:34:54;;;;;;;;;;;;;;;23.20;50.28;99263.65;68038;1275;1015894;-66
2024/04/07 06:37:56;;;;;;;;;;;;;;;23.69;49.17;99257.41;68040;1275;1017200;-65
2024/04/07 06:41:00;;;;;;;;;;;;;;;23.86;48.64;99258.58;68047;1275;1016478;-65
2024/04/07 06:44:02;;;;;;;;;;;;;;;23.93;48.61;99256.38;68025;1275;1016317;-66
2024/04/07 06:47:05;;;;;;;;;;;;;;;24.16;48.43;99253.97;68001;1275;1016453;-65
2024/04/07 06:50:08;;;;;;;;;;;;;;;24.46;48.17;99254.26;67997;1275;1018740;-65
2024/04/07 06:53:11;;;;;;;;;;;;;;;24.75;47.76;99253.53;68051;1275;1016481;-65
2024/04/07 06:56:13;;;;;;;;;;;;;;;25.03;47.10;99257.71;67958;1275;1016176;-65
2024/04/07 06:59:16;;;;;;;;;;;;;;;25.34;45.98;99254.33;67996;1275;1019203;-65
2024/04/07 07:02:18;;;;;;;;;;;;;;;25.51;45.51;99260.42;68022;1275;1019334;-66
2024/04/07 07:05:22;;;;;;;;;;;;;;;25.69;45.18;99261.41;68051;1275;1016885;-65
2024/04/07 07:08:24;;;;;;;;;;;;;;;26.04;45.10;99263.20;68027;1275;1016590;-65
2024/04/07 07:11:28;;;;;;;;;;;;;;;26.20;44.33;99268.62;68003;1275;1016323;-66
2024/04/07 07:14:30;;;;;;;;;;;;;;;26.24;43.58;99265.83;67992;1275;1017365;-65
2024/04/07 07:17:32;;;;;;;;;;;;;;;26.16;43.35;99263.21;68014;1275;1016427;-65
2024/04/07 07:20:35;;;;;;;;;;;;;;;26.24;43.41;99269.39;68039;1275;1015798;-66
2024/04/07 07:23:38;;;;;;;;;;;;;;;26.22;43.20;99277.36;68045;1275;1016344;-64
2024/04/07 07:26:40;;;;;;;;;;;;;;;26.33;42.94;99276.91;67978;1275;1016436;-65
2024/04/07 07:29:42;;;;;;;;;;;;;;;26.48;43.06;99284.09;67986;1275;1018836;-65
2024/04/07 07:32:45;;;;;;;;;;;;;;;26.76;42.79;99280.02;68028;1275;1017669;-65
2024/04/07 07:35:48;;;;;;;;;;;;;;;27.05;42.53;99276.72;68024;1275;1015905;-65
2024/04/07 07:38:50;;;;;;;;;;;;;;;27.27;41.67;99276.45;68001;1275;1019636;-65
2024/04/07 07:41:53;;;;;;;;;;;;;;;27.35;41.79;99277.27;67970;1275;1016613;-66
2024/04/07 07:44:55;;;;;;;;;;;;;;;27.36;41.53;99280.41;68053;1275;1017703;-65
2024/04/07 07:47:57;;;;;;;;;;;;;;;27.17;41.60;99282.90;68062;1275;1016514;-64
2024/04/07 07:51:00;;;;;;;;;;;;;;;27.32;41.82;99285.34;68004;1275;1015966;-66
2024/04/07 07:54:02;;;;;;;;;;;;;;;27.27;41.98;99284.05;67998;1275;1016620;-65
2024/04/07 07:57:04;;;;;;;;;;;;;;;27.37;41.54;99282.60;67994;1275;1016411;-65
2024/04/07 08:00:07;;;;;;;;;;;;;;;27.30;42.23;99289.50;68018;1275;1016366;-65
2024/04/07 08:03:09;;;;;;;;;;;;;;;27.44;42.09;99293.64;68029;1275;1016022;-65
2024/04/07 08:06:12;;;;;;;;;;;;;;;27.55;41.80;99290.02;67999;1275;1016632;-65
2024/04/07 08:09:17;;;;;;;;;;;;;;;27.75;41.21;99289.95;67976;1275;1017134;-63
2024/04/07 08:12:19;;;;;;;;;;;;;;;27.98;40.75;99293.85;68038;1275;1016460;-64
2024/04/07 08:15:22;;;;;;;;;;;;;;;28.24;40.68;99299.71;67926;1275;1017052;-63
2024/04/07 08:18:24;;;;;;;;;;;;;;;28.44;40.29;99301.08;68008;1275;1016435;-63
2024/04/07 08:21:27;;;;;;;;;;;;;;;28.45;39.76;99302.73;67993;1275;1018433;-63
2024/04/07 08:24:29;;;;;;;;;;;;;;;28.46;39.09;99304.36;68028;1276;1019423;-63
2024/04/07 08:27:32;;;;;;;;;;;;;;;28.67;38.99;99305.42;68074;1275;1016512;-63
2024/04/07 08:30:34;;;;;;;;;;;;;;;28.99;39.38;99305.60;68037;1275;1016582;-63
2024/04/07 08:33:36;;;;;;;;;;;;;;;29.21;38.77;99298.98;67966;1275;1016528;-63
2024/04/07 08:36:39;;;;;;;;;;;;;;;29.38;38.21;99301.02;67985;1275;1018695;-64
2024/04/07 08:39:41;;;;;;;;;;;;;;;29.08;38.72;99301.36;67955;1275;1016251;-64
2024/04/07 08:42:43;;;;;;;;;;;;;;;29.27;38.30;99302.98;68043;1275;1017450;-63
2024/04/07 08:45:46;;;;;;;;;;;;;;;29.36;38.08;99304.26;68057;1275;1016387;-63
2024/04/07 08:48:50;;;;;;;;;;;;;;;29.48;37.95;99309.27;68068;1275;1018939;-63
2024/04/07 08:51:53;;;;;;;;;;;;;;;29.62;37.26;99306.30;68040;1275;1016467;-62
2024/04/07 08:54:55;;;;;;;;;;;;;;;29.65;37.08;99306.42;68006;1275;1016394;-63
2024/04/07 08:57:57;;;;;;;;;;;;;;;29.59;36.88;99307.20;68020;1275;1016380;-64
2024/04/07 09:00:59;;;;;;;;;;;;;;;29.68;36.73;99308.21;68007;1275;1016985;-63
2024/04/07 09:04:02;;;;;;;;;;;;;;;29.92;37.09;99300.71;68024;1275;1018354;-64
2024/04/07 09:07:05;;;;;;;;;;;;;;;30.31;37.10;99297.95;67994;1275;1016387;-63
2024/04/07 09:10:07;;;;;;;;;;;;;;;30.58;35.62;99291.34;67992;1275;1016596;-61
2024/04/07 09:13:10;;;;;;;;;;;;;;;30.27;35.62;99290.09;68017;1275;1016487;-63
2024/04/07 09:16:12;;;;;;;;;;;;;;;30.01;35.72;99288.62;68040;1275;1016530;-63
2024/04/07 09:19:17;;;;;;;;;;;;;;;29.85;35.47;99291.37;68002;1275;1016403;-63
2024/04/07 09:22:20;;;;;;;;;;;;;;;29.84;35.53;99293.36;68006;1275;1016429;-62
2024/04/07 09:25:22;;;;;;;;;;;;;;;30.00;35.26;99291.08;68053;1275;1016509;-63
2024/04/07 09:28:25;;;;;;;;;;;;;;;30.10;35.05;99282.53;68017;1275;1016369;-64
2024/04/07 09:31:27;;;;;;;;;;;;;;;30.15;35.34;99279.58;68011;1275;1016002;-63
2024/04/07 09:34:31;;;;;;;;;;;;;;;30.17;35.35;99279.57;68014;1275;1016154;-63
2024/04/07 09:37:34;;;;;;;;;;;;;;;30.48;35.20;99280.63;67990;1275;1016447;-63
2024/04/07 09:40:37;;;;;;;;;;;;;;;30.67;34.76;99270.83;68054;1275;1016449;-63
2024/04/07 09:43:39;;;;;;;;;;;;;;;30.78;34.29;99267.48;68045;1275;1016285;-63
2024/04/07 09:46:41;;;;;;;;;;;;;;;30.80;34.39;99270.27;68025;1275;1016846;-63
2024/04/07 09:49:43;;;;;;;;;;;;;;;30.86;34.61;99264.50;67997;1275;1016483;-63
2024/04/07 09:52:46;;;;;;;;;;;;;;;30.99;34.90;99261.85;67996;1275;1016275;-63
2024/04/07 09:55:48;;;;;;;;;;;;;;;30.92;34.34;99265.80;68003;1275;1016330;-63
2024/04/07 09:58:50;;;;;;;;;;;;;;;30.88;34.33;99267.85;68053;1275;1018543;-63
2024/04/07 10:01:53;;;;;;;;;;;;;;;30.75;34.52;99261.75;68008;1275;1016180;-63
2024/04/07 10:04:56;;;;;;;;;;;;;;;30.88;34.63;99257.73;68009;1275;1016482;-63
2024/04/07 10:07:58;;;;;;;;;;;;;;;31.08;34.50;99257.73;68054;1275;1016382;-64
2024/04/07 10:11:03;;;;;;;;;;;;;;;31.39;33.90;99256.17;68031;1275;1016919;-63
2024/04/07 10:14:06;;;;;;;;;;;;;;;31.63;33.66;99252.86;68015;1275;1016174;-63
2024/04/07 10:17:09;;;;;;;;;;;;;;;31.84;33.62;99241.23;68058;1275;1016806;-63
2024/04/07 10:20:12;;;;;;;;;;;;;;;31.80;33.56;99239.37;68003;1275;1018615;-63
2024/04/07 10:23:14;;;;;;;;;;;;;;;32.28;32.31;99234.29;68047;1275;1016465;-63
2024/04/07 10:26:18;;;;;;;;;;;;;;;32.19;32.52;99230.54;68065;1275;1016433;-63
2024/04/07 10:29:20;;;;;;;;;;;;;;;32.09;32.39;99224.62;68034;1275;1016493;-64
2024/04/07 10:32:22;;;;;;;;;;;;;;;31.78;32.38;99229.67;67994;1275;1017101;-63
2024/04/07 10:35:25;;;;;;;;;;;;;;;31.44;32.32;99230.96;68024;1275;1016483;-64
2024/04/07 10:38:27;;;;;;;;;;;;;;;31.17;32.50;99226.61;68067;1275;1016446;-63
2024/04/07 10:41:30;;;;;;;;;;;;;;;31.63;32.30;99222.33;68016;1275;1016432;-63
2024/04/07 10:44:32;;;;;;;;;;;;;;;31.60;32.72;99217.51;68004;1275;1016349;-63
2024/04/07 10:47:35;;;;;;;;;;;;;;;31.94;32.14;99216.48;68029;1275;1016554;-63
2024/04/07 10:50:37;;;;;;;;;;;;;;;32.09;32.70;99210.21;68037;1275;1016482;-62
2024/04/07 10:53:40;;;;;;;;;;;;;;;32.14;31.96;99209.14;68046;1275;1015769;-64
2024/04/07 10:56:42;;;;;;;;;;;;;;;32.23;32.40;99204.92;68024;1275;1018110;-64
2024/04/07 10:59:45;;;;;;;;;;;;;;;32.40;32.05;99200.96;68029;1275;1016483;-63
2024/04/07 11:02:47;;;;;;;;;;;;;;;32.46;32.02;99200.89;68045;1275;1016417;-63
2024/04/07 11:05:49;;;;;;;;;;;;;;;32.71;31.92;99205.15;68022;1275;1016293;-63
2024/04/07 11:08:52;;;;;;;;;;;;;;;33.11;31.19;99205.69;68058;1275;1016365;-62
2024/04/07 11:11:56;;;;;;;;;;;;;;;33.01;30.98;99204.08;68015;1275;1016366;-64
2024/04/07 11:14:58;;;;;;;;;;;;;;;33.11;31.30;99205.14;68006;1275;1016411;-64
2024/04/07 11:18:01;;;;;;;;;;;;;;;32.94;31.00;99210.19;68013;1275;1016075;-63
2024/04/07 11:21:03;;;;;;;;;;;;;;;32.94;30.79;99211.16;68019;1275;1016440;-64
2024/04/07 11:24:06;;;;;;;;;;;;;;;33.05;30.60;99210.68;68068;1275;1018936;-64
2024/04/07 11:27:08;;;;;;;;;;;;;;;33.14;30.63;99205.98;67980;1275;1016915;-63
2024/04/07 11:30:10;;;;;;;;;;;;;;;33.14;30.51;99205.81;67972;1275;1016981;-63
2024/04/07 11:33:13;;;;;;;;;;;;;;;32.98;30.19;99201.65;68020;1275;1016408;-64
2024/04/07 11:36:16;;;;;;;;;;;;;;;32.77;30.39;99206.97;68006;1275;1016392;-64
2024/04/07 11:39:18;;;;;;;;;;;;;;;32.87;30.58;99210.00;68044;1275;1019272;-64
2024/04/07 11:42:21;;;;;;;;;;;;;;;32.84;30.70;99207.25;68020;1275;1016527;-63
2024/04/07 11:45:24;;;;;;;;;;;;;;;33.02;30.89;99205.41;68064;1275;1018229;-63
2024/04/07 11:48:27;;;;;;;;;;;;;;;33.46;30.90;99199.31;68011;1275;1016318;-63
2024/04/07 11:51:29;;;;;;;;;;;;;;;34.15;29.64;99203.75;68040;1275;1016225;-63
2024/04/07 11:54:32;;;;;;;;;;;;;;;33.75;29.73;99205.17;68089;1275;1016383;-63
2024/04/07 11:57:34;;;;;;;;;;;;;;;33.80;29.75;99202.41;68061;1275;1016223;-63
2024/04/07 12:00:36;;;;;;;;;;;;;;;33.85;29.93;99191.48;67973;1275;1016202;-64
2024/04/07 12:03:38;;;;;;;;;;;;;;;34.02;29.74;99193.38;67999;1275;1015991;-63
2024/04/07 12:06:41;;;;;;;;;;;;;;;34.23;29.80;99192.16;68001;1275;1016170;-63
2024/04/07 12:09:43;;;;;;;;;;;;;;;34.39;29.19;99185.97;67994;1275;1016213;-64
2024/04/07 12:12:45;;;;;;;;;;;;;;;34.14;29.07;99188.44;68030;1275;1016697;-64
2024/04/07 12:15:47;;;;;;;;;;;;;;;34.06;29.53;99195.17;68058;1275;1016408;-63
2024/04/07 12:18:50;;;;;;;;;;;;;;;34.54;28.96;99188.89;68034;1275;1016424;-63
2024/04/07 12:21:53;;;;;;;;;;;;;;;34.77;28.93;99188.43;68017;1275;1016467;-63
2024/04/07 12:24:55;;;;;;;;;;;;;;;35.01;28.67;99185.17;67953;1275;1016491;-63
2024/04/07 12:27:57;;;;;;;;;;;;;;;35.01;28.68;99181.91;68044;1275;1018878;-64
2024/04/07 12:31:00;;;;;;;;;;;;;;;35.13;29.19;99183.09;68064;1275;1018236;-63
2024/04/07 12:34:02;;;;;;;;;;;;;;;35.30;28.67;99178.80;68030;1275;1016714;-63
2024/04/07 12:37:07;;;;;;;;;;;;;;;35.44;28.53;99179.98;68003;1275;1016405;-63
2024/04/07 12:40:09;;;;;;;;;;;;;;;35.28;28.26;99178.05;68016;1275;1016347;-64
2024/04/07 12:43:12;;;;;;;;;;;;;;;35.04;28.10;99172.02;68064;1275;1016395;-63
2024/04/07 12:46:14;;;;;;;;;;;;;;;34.83;28.62;99173.77;68031;1275;1018199;-64
2024/04/07 12:49:16;;;;;;;;;;;;;;;34.87;28.64;99164.80;67998;1275;1016434;-63
2024/04/07 12:52:19;;;;;;;;;;;;;;;34.68;28.87;99162.63;67997;1275;1017039;-63
2024/04/07 12:55:21;;;;;;;;;;;;;;;34.77;28.82;99161.29;67974;1275;1016377;-63
2024/04/07 12:58:23;;;;;;;;;;;;;;;34.47;29.28;99158.05;68058;1275;1016337;-63
2024/04/07 13:01:26;;;;;;;;;;;;;;;34.42;29.20;99150.81;68049;1275;1016499;-64
2024/04/07 13:04:28;;;;;;;;;;;;;;;34.28;29.57;99147.80;68018;1275;1015886;-63
2024/04/07 13:07:31;;;;;;;;;;;;;;;34.31;29.95;99143.39;68006;1275;1016403;-63
2024/04/07 13:10:33;;;;;;;;;;;;;;;34.21;29.54;99144.71;67998;1275;1015902;-63
2024/04/07 13:13:36;;;;;;;;;;;;;;;34.17;29.85;99142.18;68053;1275;1016451;-64
2024/04/07 13:16:39;;;;;;;;;;;;;;;34.41;29.32;99141.02;67981;1275;1016391;-64
2024/04/07 13:19:41;;;;;;;;;;;;;;;34.68;29.25;99134.64;67972;1275;1018477;-64
2024/04/07 13:22:43;;;;;;;;;;;;;;;35.19;28.95;99125.67;68051;1275;1017008;-64
2024/04/07 13:25:46;;;;;;;;;;;;;;;35.19;28.78;99123.48;68053;1275;1016466;-64
2024/04/07 13:28:50;;;;;;;;;;;;;;;34.95;28.22;99124.23;68019;1275;1018304;-63
2024/04/07 13:31:55;;;;;;;;;;;;;;;34.73;28.49;99118.56;68016;1275;1016670;-64
2024/04/07 13:34:57;;;;;;;;;;;;;;;34.62;28.67;99114.88;67994;1275;1018340;-64
2024/04/07 13:37:59;;;;;;;;;;;;;;;34.38;28.69;99115.59;68034;1275;1016678;-64
2024/04/07 13:41:02;;;;;;;;;;;;;;;33.84;29.46;99118.60;68056;1275;1016436;-63
2024/04/07 13:44:04;;;;;;;;;;;;;;;33.81;29.80;99116.77;68085;1275;1017561;-64
2024/04/07 13:47:06;;;;;;;;;;;;;;;33.85;29.84;99116.31;68022;1275;1017245;-63
2024/04/07 13:50:09;;;;;;;;;;;;;;;34.14;29.57;99113.54;67969;1275;1016279;-63
2024/04/07 13:53:11;;;;;;;;;;;;;;;34.22;29.74;99111.41;68005;1275;1016151;-63
2024/04/07 13:56:13;;;;;;;;;;;;;;;34.19;29.92;99104.98;68002;1275;1016425;-63
2024/04/07 13:59:16;;;;;;;;;;;;;;;34.97;28.54;99102.27;68024;1275;1016432;-64
2024/04/07 14:02:18;;;;;;;;;;;;;;;35.13;28.76;99098.97;68052;1275;1016502;-63
2024/04/07 14:05:20;;;;;;;;;;;;;;;35.17;28.38;99096.11;68021;1275;1016143;-63
2024/04/07 14:08:22;;;;;;;;;;;;;;;35.29;27.94;99092.25;68050;1275;1016457;-63
2024/04/07 14:11:25;;;;;;;;;;;;;;;35.06;27.37;99091.19;67972;1275;1016232;-64
2024/04/07 14:14:28;;;;;;;;;;;;;;;34.49;28.13;99091.65;67971;1275;1016268;-63
2024/04/07 14:17:30;;;;;;;;;;;;;;;34.35;28.03;99092.91;67877;1275;1016469;-63
2024/04/07 14:20:33;;;;;;;;;;;;;;;34.42;28.10;99088.80;67990;1275;1016953;-63
2024/04/07 14:23:35;;;;;;;;;;;;;;;34.46;28.06;99089.42;67983;1275;1016084;-64
2024/04/07 14:26:38;;;;;;;;;;;;;;;34.42;28.21;99083.45;68023;1275;1019221;-64
2024/04/07 14:29:40;;;;;;;;;;;;;;;34.45;28.46;99086.35;68018;1275;1016760;-63
2024/04/07 14:32:42;;;;;;;;;;;;;;;34.51;29.26;99086.84;68037;1275;1016114;-63
2024/04/07 14:35:45;;;;;;;;;;;;;;;34.74;28.50;99089.27;67996;1275;1016488;-64
2024/04/07 14:38:47;;;;;;;;;;;;;;;34.54;28.58;99084.27;67976;1275;1016144;-64
2024/04/07 14:41:49;;;;;;;;;;;;;;;34.44;28.65;99084.52;67976;1275;1016417;-63
2024/04/07 14:44:51;;;;;;;;;;;;;;;34.41;28.40;99085.08;67917;1275;1016376;-63
2024/04/07 14:47:56;;;;;;;;;;;;;;;34.14;28.51;99093.19;68012;1275;1016388;-63
2024/04/07 14:50:58;;;;;;;;;;;;;;;34.07;28.46;99096.52;68059;1275;1016384;-63
2024/04/07 14:54:00;;;;;;;;;;;;;;;34.11;28.51;99096.73;67965;1275;1016317;-65
2024/04/07 14:57:03;;;;;;;;;;;;;;;34.30;28.52;99097.38;67950;1272;1016319;-64
2024/04/07 15:00:05;;;;;;;;;;;;;;;34.35;28.43;99093.43;67975;1275;1016249;-64
2024/04/07 15:03:08;;;;;;;;;;;;;;;34.47;28.05;99090.30;68002;1272;1016449;-64
2024/04/07 15:06:12;;;;;;;;;;;;;;;34.17;27.99;99088.14;67976;1275;1016478;-64
2024/04/07 15:09:14;;;;;;;;;;;;;;;34.23;28.18;99086.13;67976;1272;1016411;-65
2024/04/07 15:12:16;;;;;;;;;;;;;;;33.90;28.03;99084.84;68050;1275;1017869;-64
2024/04/07 15:15:19;;;;;;;;;;;;;;;33.42;28.66;99080.59;68026;1275;1016870;-63
2024/04/07 15:18:21;;;;;;;;;;;;;;;33.36;28.52;99078.72;67961;1275;1016444;-64
2024/04/07 15:21:24;;;;;;;;;;;;;;;33.47;28.85;99074.27;67912;1276;1016466;-63
2024/04/07 15:24:27;;;;;;;;;;;;;;;33.99;28.68;99074.15;67936;1276;1015895;-64
2024/04/07 15:27:30;;;;;;;;;;;;;;;35.25;27.90;99069.42;67913;1276;1016311;-63
2024/04/07 15:30:32;;;;;;;;;;;;;;;37.07;26.20;99066.35;67971;1275;1017594;-64